Godman Army Air Field
KFTK : now visible

Airfield :











YOU CAN JOIN US ON...

 
LOGIN :

Register | Disclaimer

   EN    FR    IT 

 









Legend :    VFR   Marginal VFR   IFR   Intensive IFR   Very Intensive IFR
Visi :
Ceiling :
>= 8 km
>= 3000ft
5 to 8 km
1000 to 3000 ft
1500m to 5 km
500 to 1000 ft
800 to 1500m
200 to 500 ft
< 800m
< 200 ft
Symbols :   Thunderstorms  Fog  Heavy snow  Heavy precipitations  Wind > 20 kt






- Airport Elevation : 756 ft


KFTK - Godman Army Air Field

CURRENT METAR :
  • 011856Z AUTO 31004KT 10SM BKN038 OVC060 11/02 A3004 RMK AO2 SLP178 T01070015

EXPIRED METARs :
  • 011756Z AUTO 29005KT 10SM OVC033 10/02 A3005 RMK AO2 SLP181 T00980017 10099 20053 50001
  • 011726Z AUTO 30006KT 10SM OVC032 09/02 A3006 RMK AO2 SLP185
  • 011656Z AUTO 34008KT 10SM OVC029 09/02 A3006 RMK AO2 SLP185 T00890018

TAF TAF KFTK
Valid from the 01 at 17:00 until the 02 at 23:00 UTC


011700Z 0117/0223 33006KT 9999 BKN025 QNH3004INS
BECMG 0208/0209 03006KT 9999 SCT025 QNH3002INS
BECMG 0217/0218 06006KT 9999 FEW200 QNH3010INS TX11/0217Z TN04/0211Z



MET'MAP, your aeronautical weather chart ! - Copyright ORBIFLY December 2007 - Disclaimer

ORBIFLY MET'MAP TEAM :

Programming & Development : Alexandra Zaïnal
Concept & original design : Baudouin d'Aumeries
Assistance for programming : Marc-Olivier Méhu
Technical & hardware support : Manuel Goepfert

Contact : metmap@orbifly.com




SOURCES & CREDITS :

   NOAA       Earth
Advisory